Time,TemperatureF,DewpointF,PressureIn,WindDirection,WindDirectionDegrees,WindSpeedMPH,WindSpeedGustMPH,Humidity,HourlyPrecipIn,Conditions,Clouds,dailyrainin,SoftwareType,DateUTC
2013-06-20 00:01:00,56.3,53.1,30.12,South,180,0.0,0.0,89,0.00,,,0.00,meteobridge,2013-06-20 04:01:00,
2013-06-20 00:02:00,56.3,53.1,30.12,South,180,0.0,0.0,89,0.00,,,0.00,meteobridge,2013-06-20 04:02:00,
2013-06-20 00:04:00,56.3,53.1,30.12,South,180,0.0,0.0,89,0.00,,,0.00,meteobridge,2013-06-20 04:04:00,
2013-06-20 00:09:00,56.3,53.4,30.13,South,180,0.0,0.0,90,0.00,,,0.00,meteobridge,2013-06-20 04:09:00,
2013-06-20 00:14:00,56.3,53.4,30.12,South,180,0.0,0.0,90,0.00,,,0.00,meteobridge,2013-06-20 04:14:00,
2013-06-20 00:20:00,56.3,53.4,30.12,South,180,0.0,0.0,90,0.00,,,0.00,meteobridge,2013-06-20 04:20:00,
2013-06-20 00:25:00,56.3,53.8,30.12,South,180,0.0,0.0,91,0.00,,,0.00,meteobridge,2013-06-20 04:25:00,
2013-06-20 00:30:00,56.3,53.8,30.13,South,180,0.0,0.0,91,0.00,,,0.00,meteobridge,2013-06-20 04:30:00,
2013-06-20 00:35:00,56.5,54.0,30.12,South,180,0.0,0.0,91,0.00,,,0.00,meteobridge,2013-06-20 04:35:00,
2013-06-20 00:40:00,56.3,53.8,30.12,South,180,0.0,0.0,91,0.00,,,0.00,meteobridge,2013-06-20 04:40:00,
2013-06-20 00:45:00,56.3,54.0,30.13,South,180,0.0,0.0,92,0.00,,,0.00,meteobridge,2013-06-20 04:45:00,
2013-06-20 00:51:00,56.3,54.0,30.12,South,180,0.0,0.0,92,0.00,,,0.00,meteobridge,2013-06-20 04:51:00,
2013-06-20 00:56:00,56.5,54.5,30.13,South,180,0.0,0.0,93,0.00,,,0.00,meteobridge,2013-06-20 04:56:00,
2013-06-20 01:01:00,56.5,54.5,30.13,South,180,0.0,0.0,93,0.00,,,0.00,meteobridge,2013-06-20 05:01:00,
2013-06-20 01:06:00,56.5,54.5,30.13,South,180,0.0,0.0,93,0.00,,,0.00,meteobridge,2013-06-20 05:06:00,
2013-06-20 01:11:00,56.5,54.5,30.14,South,180,0.0,0.0,93,0.00,,,0.00,meteobridge,2013-06-20 05:11:00,
2013-06-20 01:16:00,56.3,54.7,30.14,South,180,0.0,0.0,94,0.00,,,0.00,meteobridge,2013-06-20 05:16:00,
2013-06-20 01:22:00,56.3,54.7,30.14,South,180,0.0,0.0,94,0.00,,,0.00,meteobridge,2013-06-20 05:22:00,
2013-06-20 01:27:00,56.1,54.5,30.14,South,180,0.0,0.0,94,0.00,,,0.00,meteobridge,2013-06-20 05:27:00,
2013-06-20 01:32:00,55.8,54.1,30.14,South,180,0.0,0.0,94,0.00,,,0.00,meteobridge,2013-06-20 05:32:00,
2013-06-20 01:37:00,55.6,54.0,30.14,South,180,0.0,0.0,94,0.00,,,0.00,meteobridge,2013-06-20 05:37:00,
2013-06-20 01:42:00,55.4,54.0,30.14,South,180,0.0,0.0,95,0.00,,,0.00,meteobridge,2013-06-20 05:42:00,
2013-06-20 01:47:00,55.4,54.0,30.14,South,180,0.0,0.0,95,0.00,,,0.00,meteobridge,2013-06-20 05:47:00,
2013-06-20 01:53:00,55.4,54.0,30.15,South,180,0.0,0.0,95,0.00,,,0.00,meteobridge,2013-06-20 05:53:00,
2013-06-20 01:58:00,55.2,53.8,30.15,South,180,0.0,0.0,95,0.00,,,0.00,meteobridge,2013-06-20 05:58:00,
2013-06-20 02:03:00,55.2,53.8,30.15,South,180,0.0,0.0,95,0.00,,,0.00,meteobridge,2013-06-20 06:03:00,
2013-06-20 02:08:00,55.0,53.6,30.15,South,180,0.0,0.0,95,0.00,,,0.00,meteobridge,2013-06-20 06:08:00,
2013-06-20 02:13:00,54.9,53.4,30.15,South,180,0.0,0.0,95,0.00,,,0.00,meteobridge,2013-06-20 06:13:00,
2013-06-20 02:18:00,54.7,53.2,30.15,South,180,0.0,0.0,95,0.00,,,0.00,meteobridge,2013-06-20 06:18:00,
2013-06-20 02:24:00,54.5,53.1,30.15,South,180,0.0,0.0,95,0.00,,,0.00,meteobridge,2013-06-20 06:24:00,
2013-06-20 02:29:00,54.5,53.1,30.15,South,180,0.0,0.0,95,0.00,,,0.00,meteobridge,2013-06-20 06:29:00,
2013-06-20 02:34:00,54.3,52.9,30.15,South,180,0.0,0.0,95,0.00,,,0.00,meteobridge,2013-06-20 06:34:00,
2013-06-20 02:39:00,54.3,52.9,30.15,South,180,0.0,0.0,95,0.00,,,0.00,meteobridge,2013-06-20 06:39:00,
2013-06-20 02:44:00,54.3,52.9,30.14,South,180,0.0,0.0,95,0.00,,,0.00,meteobridge,2013-06-20 06:44:00,
2013-06-20 02:50:00,54.3,53.2,30.15,South,180,0.0,0.0,96,0.00,,,0.00,meteobridge,2013-06-20 06:50:00,
2013-06-20 02:55:00,54.1,53.1,30.14,South,180,0.0,0.0,96,0.00,,,0.00,meteobridge,2013-06-20 06:55:00,
2013-06-20 03:00:00,54.1,53.1,30.14,South,180,0.0,0.0,96,0.00,,,0.00,meteobridge,2013-06-20 07:00:00,
2013-06-20 03:05:00,54.0,52.9,30.14,South,180,0.0,0.0,96,0.00,,,0.00,meteobridge,2013-06-20 07:05:00,
2013-06-20 03:10:00,54.0,52.9,30.15,South,180,0.0,0.0,96,0.00,,,0.00,meteobridge,2013-06-20 07:10:00,
2013-06-20 03:15:00,53.8,52.7,30.15,South,180,0.0,0.0,96,0.00,,,0.00,meteobridge,2013-06-20 07:15:00,
2013-06-20 03:21:00,53.8,52.7,30.14,South,180,0.0,0.0,96,0.00,,,0.00,meteobridge,2013-06-20 07:21:00,
2013-06-20 03:26:00,53.6,52.5,30.15,South,180,0.0,0.0,96,0.00,,,0.00,meteobridge,2013-06-20 07:26:00,
2013-06-20 03:31:00,53.6,52.5,30.14,South,180,0.0,0.0,96,0.00,,,0.00,meteobridge,2013-06-20 07:31:00,
2013-06-20 03:36:00,53.4,52.5,30.15,South,180,0.0,0.0,97,0.00,,,0.00,meteobridge,2013-06-20 07:36:00,
2013-06-20 03:41:00,53.4,52.5,30.15,South,180,0.0,0.0,97,0.00,,,0.00,meteobridge,2013-06-20 07:41:00,
2013-06-20 03:46:00,53.1,52.5,30.15,South,180,0.0,0.0,98,0.00,,,0.00,meteobridge,2013-06-20 07:46:00,
2013-06-20 03:52:00,53.1,52.5,30.16,South,180,0.0,0.0,98,0.00,,,0.00,meteobridge,2013-06-20 07:52:00,
2013-06-20 03:57:00,52.9,52.3,30.16,South,180,0.0,0.0,98,0.00,,,0.00,meteobridge,2013-06-20 07:57:00,
2013-06-20 04:02:00,52.9,52.3,30.16,South,180,0.0,0.0,98,0.00,,,0.00,meteobridge,2013-06-20 08:02:00,
2013-06-20 04:07:00,53.1,52.5,30.16,South,180,0.0,0.0,98,0.00,,,0.00,meteobridge,2013-06-20 08:07:00,
2013-06-20 04:12:00,53.1,52.5,30.16,South,180,0.0,0.0,98,0.00,,,0.00,meteobridge,2013-06-20 08:12:00,
2013-06-20 04:17:00,53.1,52.5,30.16,South,180,0.0,0.0,98,0.00,,,0.00,meteobridge,2013-06-20 08:17:00,
2013-06-20 04:23:00,53.2,52.7,30.16,South,180,0.0,0.0,98,0.00,,,0.00,meteobridge,2013-06-20 08:23:00,
2013-06-20 04:28:00,53.2,52.7,30.16,South,180,0.0,0.0,98,0.00,,,0.00,meteobridge,2013-06-20 08:28:00,
2013-06-20 04:33:00,53.6,52.7,30.16,South,180,0.0,0.0,97,0.00,,,0.00,meteobridge,2013-06-20 08:33:00,
2013-06-20 04:38:00,53.6,52.7,30.16,South,180,0.0,0.0,97,0.00,,,0.00,meteobridge,2013-06-20 08:38:00,
2013-06-20 04:43:00,53.8,52.9,30.16,South,180,0.0,0.0,97,0.00,,,0.00,meteobridge,2013-06-20 08:43:00,
2013-06-20 04:48:00,53.8,52.9,30.17,South,180,0.0,0.0,97,0.00,,,0.00,meteobridge,2013-06-20 08:48:00,
2013-06-20 04:54:00,53.8,52.9,30.17,NW,315,0.0,0.0,97,0.00,,,0.00,meteobridge,2013-06-20 08:54:00,
2013-06-20 04:59:00,54.0,53.1,30.17,South,180,0.0,0.0,97,0.00,,,0.00,meteobridge,2013-06-20 08:59:00,
2013-06-20 05:04:00,54.1,53.2,30.17,NW,315,0.0,0.0,97,0.00,,,0.00,meteobridge,2013-06-20 09:04:00,
2013-06-20 05:09:00,54.3,53.4,30.18,NW,315,0.0,0.0,97,0.00,,,0.00,meteobridge,2013-06-20 09:09:00,
2013-06-20 05:14:00,54.5,53.6,30.17,NW,315,0.0,0.0,97,0.00,,,0.00,meteobridge,2013-06-20 09:14:00,
2013-06-20 05:19:00,54.7,53.8,30.18,NW,315,0.0,0.0,97,0.00,,,0.00,meteobridge,2013-06-20 09:19:00,
2013-06-20 05:25:00,54.9,54.0,30.18,West,270,0.0,0.0,97,0.00,,,0.00,meteobridge,2013-06-20 09:25:00,
2013-06-20 05:30:00,55.0,54.1,30.18,West,270,0.0,0.0,97,0.00,,,0.00,meteobridge,2013-06-20 09:30:00,
2013-06-20 05:35:00,55.0,54.1,30.18,SE,135,0.0,0.0,97,0.00,,,0.00,meteobridge,2013-06-20 09:35:00,
2013-06-20 05:40:00,55.2,54.3,30.18,NW,315,0.0,0.0,97,0.00,,,0.00,meteobridge,2013-06-20 09:40:00,
2013-06-20 05:45:00,55.2,54.3,30.18,SE,135,0.0,0.0,97,0.00,,,0.00,meteobridge,2013-06-20 09:45:00,
2013-06-20 05:50:00,55.4,55.0,30.19,SE,135,0.0,0.0,99,0.00,,,0.00,meteobridge,2013-06-20 09:50:00,
2013-06-20 05:56:00,55.6,55.2,30.19,SE,135,0.0,0.0,99,0.00,,,0.00,meteobridge,2013-06-20 09:56:00,
2013-06-20 06:01:00,55.8,55.4,30.19,SE,135,0.0,0.0,99,0.00,,,0.00,meteobridge,2013-06-20 10:01:00,
2013-06-20 06:06:00,55.8,55.4,30.19,SE,135,0.0,0.0,99,0.00,,,0.00,meteobridge,2013-06-20 10:06:00,
2013-06-20 06:11:00,56.3,55.9,30.19,South,180,0.0,0.0,99,0.00,,,0.00,meteobridge,2013-06-20 10:11:00,
2013-06-20 06:16:00,56.5,56.1,30.19,South,180,0.0,0.0,99,0.00,,,0.00,meteobridge,2013-06-20 10:16:00,
2013-06-20 06:21:00,56.8,56.5,30.19,South,180,0.0,0.0,99,0.00,,,0.00,meteobridge,2013-06-20 10:21:00,
2013-06-20 06:27:00,57.2,56.8,30.20,South,180,0.0,0.0,99,0.00,,,0.00,meteobridge,2013-06-20 10:27:00,
2013-06-20 06:32:00,57.6,57.2,30.20,South,180,0.0,0.0,99,0.00,,,0.00,meteobridge,2013-06-20 10:32:00,
2013-06-20 06:37:00,57.9,57.6,30.20,South,180,0.0,0.0,99,0.00,,,0.00,meteobridge,2013-06-20 10:37:00,
2013-06-20 06:42:00,58.3,57.9,30.20,South,180,0.0,0.0,99,0.00,,,0.00,meteobridge,2013-06-20 10:42:00,
2013-06-20 06:47:00,58.6,58.3,30.20,South,180,0.0,0.0,99,0.00,,,0.00,meteobridge,2013-06-20 10:47:00,
2013-06-20 06:52:00,59.2,58.8,30.20,South,180,0.0,0.0,99,0.00,,,0.00,meteobridge,2013-06-20 10:52:00,
2013-06-20 06:58:00,59.5,59.2,30.21,South,180,0.0,0.0,99,0.00,,,0.00,meteobridge,2013-06-20 10:58:00,
2013-06-20 07:03:00,59.9,59.5,30.21,South,180,0.0,0.0,99,0.00,,,0.00,meteobridge,2013-06-20 11:03:00,
2013-06-20 07:08:00,60.3,59.9,30.22,South,180,0.0,0.0,99,0.00,,,0.00,meteobridge,2013-06-20 11:08:00,
2013-06-20 07:13:00,60.6,60.3,30.22,South,180,0.0,0.0,99,0.00,,,0.00,meteobridge,2013-06-20 11:13:00,
2013-06-20 07:18:00,61.0,60.4,30.22,South,180,0.0,0.0,98,0.00,,,0.00,meteobridge,2013-06-20 11:18:00,
2013-06-20 07:23:00,61.5,61.0,30.22,South,180,0.0,0.0,98,0.00,,,0.00,meteobridge,2013-06-20 11:23:00,
2013-06-20 07:29:00,62.1,61.5,30.22,SE,135,0.0,0.0,98,0.00,,,0.00,meteobridge,2013-06-20 11:29:00,
2013-06-20 07:34:00,62.6,61.7,30.22,South,180,0.0,0.0,97,0.00,,,0.00,meteobridge,2013-06-20 11:34:00,
2013-06-20 07:39:00,63.1,62.2,30.22,SW,225,0.7,0.7,97,0.00,,,0.00,meteobridge,2013-06-20 11:39:00,
2013-06-20 07:44:00,63.5,62.4,30.22,SW,225,0.7,0.7,96,0.00,,,0.00,meteobridge,2013-06-20 11:44:00,
2013-06-20 07:49:00,64.0,62.6,30.22,South,180,1.6,1.6,95,0.00,,,0.00,meteobridge,2013-06-20 11:49:00,
2013-06-20 07:54:00,64.8,63.3,30.22,West,270,0.7,1.6,95,0.00,,,0.00,meteobridge,2013-06-20 11:54:00,
2013-06-20 08:00:00,65.3,63.0,30.22,NW,315,1.6,2.2,92,0.00,,,0.00,meteobridge,2013-06-20 12:00:00,
2013-06-20 08:05:00,65.8,62.8,30.22,East,90,2.2,2.2,90,0.00,,,0.00,meteobridge,2013-06-20 12:05:00,
2013-06-20 08:10:00,66.4,62.4,30.22,SE,135,0.7,2.2,87,0.00,,,0.00,meteobridge,2013-06-20 12:10:00,
2013-06-20 08:15:00,66.9,62.2,30.22,SE,135,2.2,2.2,85,0.00,,,0.00,meteobridge,2013-06-20 12:15:00,
2013-06-20 08:20:00,67.5,62.4,30.23,SE,135,2.2,2.2,84,0.00,,,0.00,meteobridge,2013-06-20 12:20:00,
2013-06-20 08:26:00,67.6,61.2,30.23,SE,135,1.6,1.6,80,0.00,,,0.00,meteobridge,2013-06-20 12:26:00,
2013-06-20 08:31:00,67.5,61.2,30.22,East,90,0.7,0.7,80,0.00,,,0.00,meteobridge,2013-06-20 12:31:00,
2013-06-20 08:36:00,68.0,61.5,30.23,South,180,0.0,0.0,80,0.00,,,0.00,meteobridge,2013-06-20 12:36:00,
2013-06-20 08:41:00,68.2,61.3,30.22,South,180,0.7,1.6,79,0.00,,,0.00,meteobridge,2013-06-20 12:41:00,
2013-06-20 08:46:00,68.4,61.2,30.22,South,180,3.1,3.1,78,0.00,,,0.00,meteobridge,2013-06-20 12:46:00,
2013-06-20 08:51:00,68.4,60.4,30.22,South,180,1.6,2.2,76,0.00,,,0.00,meteobridge,2013-06-20 12:51:00,
2013-06-20 08:57:00,68.7,60.4,30.22,South,180,3.1,3.1,75,0.00,,,0.00,meteobridge,2013-06-20 12:57:00,
2013-06-20 09:02:00,68.9,60.3,30.22,South,180,2.2,2.2,74,0.00,,,0.00,meteobridge,2013-06-20 13:02:00,
2013-06-20 09:07:00,69.4,61.2,30.22,SE,135,2.2,2.2,75,0.00,,,0.00,meteobridge,2013-06-20 13:07:00,
2013-06-20 09:12:00,69.6,60.6,30.22,NE,45,3.8,3.8,73,0.00,,,0.00,meteobridge,2013-06-20 13:12:00,
2013-06-20 09:17:00,69.8,59.2,30.22,NW,315,1.6,3.1,69,0.00,,,0.00,meteobridge,2013-06-20 13:17:00,
2013-06-20 09:22:00,70.3,59.7,30.22,NW,315,0.7,3.1,69,0.00,,,0.00,meteobridge,2013-06-20 13:22:00,
2013-06-20 09:28:00,70.7,59.5,30.22,South,180,2.2,3.1,68,0.00,,,0.00,meteobridge,2013-06-20 13:28:00,
2013-06-20 09:33:00,70.9,59.4,30.22,South,180,3.1,3.1,67,0.00,,,0.00,meteobridge,2013-06-20 13:33:00,
2013-06-20 09:38:00,71.4,59.0,30.22,North,0,2.2,2.2,65,0.00,,,0.00,meteobridge,2013-06-20 13:38:00,
2013-06-20 09:43:00,71.6,59.2,30.22,South,180,3.1,3.1,65,0.00,,,0.00,meteobridge,2013-06-20 13:43:00,
2013-06-20 09:48:00,72.0,58.3,30.23,SE,135,3.1,3.1,62,0.00,,,0.00,meteobridge,2013-06-20 13:48:00,
2013-06-20 09:53:00,72.1,58.5,30.23,SE,135,3.8,5.4,62,0.00,,,0.00,meteobridge,2013-06-20 13:53:00,
2013-06-20 09:59:00,72.3,58.1,30.22,SE,135,3.1,3.8,61,0.00,,,0.00,meteobridge,2013-06-20 13:59:00,
2013-06-20 10:04:00,72.7,59.4,30.22,NW,315,1.6,2.2,63,0.00,,,0.00,meteobridge,2013-06-20 14:04:00,
2013-06-20 10:09:00,73.2,59.4,30.23,NW,315,2.2,2.2,62,0.00,,,0.00,meteobridge,2013-06-20 14:09:00,
2013-06-20 10:14:00,73.8,59.5,30.23,ENE,68,0.7,1.6,61,0.00,,,0.00,meteobridge,2013-06-20 14:14:00,
2013-06-20 10:19:00,74.1,59.4,30.23,South,180,1.6,3.1,60,0.00,,,0.00,meteobridge,2013-06-20 14:19:00,
2013-06-20 10:24:00,74.5,58.8,30.23,South,180,3.1,3.1,58,0.00,,,0.00,meteobridge,2013-06-20 14:24:00,
2013-06-20 10:30:00,74.8,58.6,30.23,South,180,3.1,3.1,57,0.00,,,0.00,meteobridge,2013-06-20 14:30:00,
2013-06-20 10:35:00,75.7,59.0,30.22,South,180,3.1,3.1,56,0.00,,,0.00,meteobridge,2013-06-20 14:35:00,
2013-06-20 10:40:00,78.6,60.6,30.23,NE,45,1.6,3.8,54,0.00,,,0.00,meteobridge,2013-06-20 14:40:00,
2013-06-20 10:45:00,81.1,60.1,30.22,East,90,2.2,3.8,49,0.00,,,0.00,meteobridge,2013-06-20 14:45:00,
2013-06-20 10:50:00,82.9,61.2,30.23,West,270,1.6,3.1,48,0.00,,,0.00,meteobridge,2013-06-20 14:50:00,
2013-06-20 10:55:00,84.7,60.4,30.23,NW,315,1.6,3.8,44,0.00,,,0.00,meteobridge,2013-06-20 14:55:00,
2013-06-20 11:01:00,86.5,60.1,30.22,South,180,3.1,3.8,41,0.00,,,0.00,meteobridge,2013-06-20 15:01:00,
2013-06-20 11:06:00,86.9,59.7,30.22,NW,315,3.8,3.8,40,0.00,,,0.00,meteobridge,2013-06-20 15:06:00,
2013-06-20 11:11:00,87.6,58.8,30.22,NW,315,3.1,3.1,38,0.00,,,0.00,meteobridge,2013-06-20 15:11:00,
2013-06-20 11:16:00,88.0,58.5,30.22,South,180,3.1,3.8,37,0.00,,,0.00,meteobridge,2013-06-20 15:16:00,
2013-06-20 11:21:00,88.3,60.3,30.22,North,0,3.1,3.1,39,0.00,,,0.00,meteobridge,2013-06-20 15:21:00,
2013-06-20 11:26:00,88.2,59.4,30.22,North,0,1.6,3.1,38,0.00,,,0.00,meteobridge,2013-06-20 15:26:00,
2013-06-20 11:32:00,89.1,60.1,30.22,SW,225,3.1,3.1,38,0.00,,,0.00,meteobridge,2013-06-20 15:32:00,
2013-06-20 11:37:00,89.1,57.9,30.22,South,180,3.1,3.1,35,0.00,,,0.00,meteobridge,2013-06-20 15:37:00,
2013-06-20 11:42:00,89.2,60.3,30.22,South,180,2.2,3.8,38,0.00,,,0.00,meteobridge,2013-06-20 15:42:00,
2013-06-20 11:47:00,88.7,56.7,30.22,SSE,158,1.6,3.8,34,0.00,,,0.00,meteobridge,2013-06-20 15:47:00,
2013-06-20 11:52:00,87.8,56.7,30.22,South,180,3.8,5.4,35,0.00,,,0.00,meteobridge,2013-06-20 15:52:00,
2013-06-20 11:57:00,87.8,59.0,30.22,West,270,1.6,3.1,38,0.00,,,0.00,meteobridge,2013-06-20 15:57:00,
2013-06-20 12:03:00,89.2,58.8,30.23,SE,135,4.5,4.5,36,0.00,,,0.00,meteobridge,2013-06-20 16:03:00,
2013-06-20 12:08:00,88.2,57.0,30.23,SSE,158,3.8,3.8,35,0.00,,,0.00,meteobridge,2013-06-20 16:08:00,
2013-06-20 12:13:00,88.3,57.2,30.22,South,180,2.2,2.2,35,0.00,,,0.00,meteobridge,2013-06-20 16:13:00,
2013-06-20 12:18:00,87.6,56.7,30.22,South,180,3.1,4.5,35,0.00,,,0.00,meteobridge,2013-06-20 16:18:00,
2013-06-20 12:23:00,86.5,55.6,30.23,SSE,158,3.1,4.5,35,0.00,,,0.00,meteobridge,2013-06-20 16:23:00,
2013-06-20 12:28:00,86.4,57.7,30.22,NW,315,3.8,3.8,38,0.00,,,0.00,meteobridge,2013-06-20 16:28:00,
2013-06-20 12:34:00,87.3,57.0,30.22,SE,135,4.5,4.5,36,0.00,,,0.00,meteobridge,2013-06-20 16:34:00,
2013-06-20 12:39:00,86.0,55.9,30.22,West,270,2.2,4.5,36,0.00,,,0.00,meteobridge,2013-06-20 16:39:00,
2013-06-20 12:44:00,85.5,57.0,30.23,SE,135,3.8,4.5,38,0.00,,,0.00,meteobridge,2013-06-20 16:44:00,
2013-06-20 12:49:00,83.8,56.3,30.22,South,180,3.1,3.1,39,0.00,,,0.00,meteobridge,2013-06-20 16:49:00,
2013-06-20 12:54:00,83.5,59.4,30.23,NW,315,4.5,4.5,44,0.00,,,0.00,meteobridge,2013-06-20 16:54:00,
2013-06-20 12:59:00,83.3,55.8,30.23,SE,135,2.2,3.8,39,0.00,,,0.00,meteobridge,2013-06-20 16:59:00,
2013-06-20 13:05:00,82.4,57.7,30.23,South,180,4.5,4.5,43,0.00,,,0.00,meteobridge,2013-06-20 17:05:00,
2013-06-20 13:10:00,82.4,57.7,30.23,NNW,338,3.1,3.8,43,0.00,,,0.00,meteobridge,2013-06-20 17:10:00,
2013-06-20 13:15:00,82.0,56.7,30.23,SSE,158,4.5,4.5,42,0.00,,,0.00,meteobridge,2013-06-20 17:15:00,
2013-06-20 13:20:00,82.4,58.3,30.22,NE,45,3.1,3.8,44,0.00,,,0.00,meteobridge,2013-06-20 17:20:00,
2013-06-20 13:25:00,81.5,55.6,30.23,SE,135,3.8,5.4,41,0.00,,,0.00,meteobridge,2013-06-20 17:25:00,
2013-06-20 13:30:00,81.1,55.9,30.22,SE,135,6.0,6.0,42,0.00,,,0.00,meteobridge,2013-06-20 17:30:00,
2013-06-20 13:36:00,80.8,54.9,30.22,South,180,4.5,5.4,41,0.00,,,0.00,meteobridge,2013-06-20 17:36:00,
2013-06-20 13:41:00,80.4,55.2,30.23,East,90,3.1,6.0,42,0.00,,,0.00,meteobridge,2013-06-20 17:41:00,
2013-06-20 13:46:00,80.1,55.6,30.22,SE,135,1.6,4.5,43,0.00,,,0.00,meteobridge,2013-06-20 17:46:00,
2013-06-20 13:51:00,80.1,55.6,30.23,East,90,2.2,4.5,43,0.00,,,0.00,meteobridge,2013-06-20 17:51:00,
2013-06-20 13:56:00,79.9,55.4,30.23,SW,225,4.5,4.5,43,0.00,,,0.00,meteobridge,2013-06-20 17:56:00,
2013-06-20 14:01:00,79.5,55.0,30.23,North,0,8.3,8.3,43,0.00,,,0.00,meteobridge,2013-06-20 18:01:00,
2013-06-20 14:07:00,79.3,54.9,30.23,North,0,3.1,3.1,43,0.00,,,0.00,meteobridge,2013-06-20 18:07:00,
2013-06-20 14:12:00,79.5,56.3,30.22,North,0,2.2,3.1,45,0.00,,,0.00,meteobridge,2013-06-20 18:12:00,
2013-06-20 14:17:00,79.5,55.0,30.23,South,180,2.2,3.1,43,0.00,,,0.00,meteobridge,2013-06-20 18:17:00,
2013-06-20 14:22:00,79.7,56.5,30.22,South,180,3.8,3.8,45,0.00,,,0.00,meteobridge,2013-06-20 18:22:00,
2013-06-20 14:27:00,80.1,56.1,30.22,SE,135,3.1,3.1,44,0.00,,,0.00,meteobridge,2013-06-20 18:27:00,
2013-06-20 14:33:00,79.5,55.0,30.22,SE,135,6.0,6.0,43,0.00,,,0.00,meteobridge,2013-06-20 18:33:00,
2013-06-20 14:38:00,78.8,53.8,30.22,North,0,2.2,5.4,42,0.00,,,0.00,meteobridge,2013-06-20 18:38:00,
2013-06-20 14:43:00,78.8,54.5,30.22,NW,315,3.1,3.1,43,0.00,,,0.00,meteobridge,2013-06-20 18:43:00,
2013-06-20 14:48:00,78.8,54.5,30.22,NW,315,3.8,3.8,43,0.00,,,0.00,meteobridge,2013-06-20 18:48:00,
2013-06-20 14:53:00,78.8,54.5,30.22,SE,135,5.4,5.4,43,0.00,,,0.00,meteobridge,2013-06-20 18:53:00,
2013-06-20 14:58:00,78.3,52.7,30.22,NE,45,2.2,5.4,41,0.00,,,0.00,meteobridge,2013-06-20 18:58:00,
2013-06-20 15:04:00,77.9,54.3,30.22,South,180,3.8,3.8,44,0.00,,,0.00,meteobridge,2013-06-20 19:04:00,
2013-06-20 15:09:00,77.5,53.2,30.22,NW,315,1.6,3.8,43,0.00,,,0.00,meteobridge,2013-06-20 19:09:00,
2013-06-20 15:14:00,77.5,53.2,30.22,NW,315,2.2,2.2,43,0.00,,,0.00,meteobridge,2013-06-20 19:14:00,
2013-06-20 15:19:00,77.4,53.8,30.22,North,0,2.2,3.1,44,0.00,,,0.00,meteobridge,2013-06-20 19:19:00,
2013-06-20 15:24:00,77.4,53.8,30.22,NW,315,3.8,3.8,44,0.00,,,0.00,meteobridge,2013-06-20 19:24:00,
2013-06-20 15:30:00,77.0,53.4,30.22,SE,135,4.5,4.5,44,0.00,,,0.00,meteobridge,2013-06-20 19:30:00,
2013-06-20 15:35:00,76.8,53.8,30.22,SSE,158,3.1,4.5,45,0.00,,,0.00,meteobridge,2013-06-20 19:35:00,
2013-06-20 15:40:00,76.8,53.8,30.22,South,180,2.2,4.5,45,0.00,,,0.00,meteobridge,2013-06-20 19:40:00,
2013-06-20 15:45:00,77.0,54.0,30.22,North,0,2.2,2.2,45,0.00,,,0.00,meteobridge,2013-06-20 19:45:00,
2013-06-20 15:50:00,77.0,52.9,30.22,North,0,4.5,4.5,43,0.00,,,0.00,meteobridge,2013-06-20 19:50:00,
2013-06-20 15:55:00,76.6,53.1,30.22,SW,225,3.8,3.8,44,0.00,,,0.00,meteobridge,2013-06-20 19:55:00,
2013-06-20 16:01:00,76.5,53.6,30.22,SSE,158,2.2,3.1,45,0.00,,,0.00,meteobridge,2013-06-20 20:01:00,
2013-06-20 16:06:00,76.3,52.7,30.22,NNE,23,6.0,6.0,44,0.00,,,0.00,meteobridge,2013-06-20 20:06:00,
2013-06-20 16:11:00,76.1,53.8,30.22,East,90,3.8,3.8,46,0.00,,,0.00,meteobridge,2013-06-20 20:11:00,
2013-06-20 16:16:00,76.1,53.2,30.22,NNW,338,3.1,5.4,45,0.00,,,0.00,meteobridge,2013-06-20 20:16:00,
2013-06-20 16:21:00,75.9,53.6,30.22,North,0,2.2,3.1,46,0.00,,,0.00,meteobridge,2013-06-20 20:21:00,
2013-06-20 16:26:00,75.7,52.9,30.22,SE,135,3.8,3.8,45,0.00,,,0.00,meteobridge,2013-06-20 20:26:00,
2013-06-20 16:32:00,75.7,52.9,30.22,NE,45,2.2,3.1,45,0.00,,,0.00,meteobridge,2013-06-20 20:32:00,
2013-06-20 16:37:00,76.1,53.8,30.22,South,180,2.2,3.8,46,0.00,,,0.00,meteobridge,2013-06-20 20:37:00,
2013-06-20 16:42:00,76.5,53.6,30.22,North,0,6.9,6.9,45,0.00,,,0.00,meteobridge,2013-06-20 20:42:00,
2013-06-20 16:47:00,76.5,54.7,30.22,NE,45,1.6,4.5,47,0.00,,,0.00,meteobridge,2013-06-20 20:47:00,
2013-06-20 16:52:00,77.0,54.7,30.22,SW,225,3.8,3.8,46,0.00,,,0.00,meteobridge,2013-06-20 20:52:00,
2013-06-20 16:57:00,77.0,53.4,30.22,SE,135,2.2,4.5,44,0.00,,,0.00,meteobridge,2013-06-20 20:57:00,
2013-06-20 17:03:00,77.0,54.0,30.21,SE,135,3.8,3.8,45,0.00,,,0.00,meteobridge,2013-06-20 21:03:00,
2013-06-20 17:08:00,75.6,54.0,30.21,West,270,2.2,3.8,47,0.00,,,0.00,meteobridge,2013-06-20 21:08:00,
2013-06-20 17:13:00,75.0,55.0,30.22,SW,225,1.6,3.1,50,0.00,,,0.00,meteobridge,2013-06-20 21:13:00,
2013-06-20 17:18:00,74.1,54.3,30.21,SE,135,2.2,3.8,50,0.00,,,0.00,meteobridge,2013-06-20 21:18:00,
2013-06-20 17:23:00,73.4,54.7,30.21,SE,135,3.1,3.8,52,0.00,,,0.00,meteobridge,2013-06-20 21:23:00,
2013-06-20 17:28:00,73.0,55.9,30.21,SE,135,2.2,2.2,55,0.00,,,0.00,meteobridge,2013-06-20 21:28:00,
2013-06-20 17:34:00,72.9,55.8,30.20,NE,45,3.8,3.8,55,0.00,,,0.00,meteobridge,2013-06-20 21:34:00,
2013-06-20 17:39:00,72.9,56.3,30.21,SW,225,3.8,3.8,56,0.00,,,0.00,meteobridge,2013-06-20 21:39:00,
2013-06-20 17:44:00,72.9,55.8,30.21,North,0,1.6,4.5,55,0.00,,,0.00,meteobridge,2013-06-20 21:44:00,
2013-06-20 17:49:00,72.9,55.8,30.21,South,180,4.5,4.5,55,0.00,,,0.00,meteobridge,2013-06-20 21:49:00,
2013-06-20 17:54:00,72.3,55.8,30.21,South,180,2.2,2.2,56,0.00,,,0.00,meteobridge,2013-06-20 21:54:00,
2013-06-20 17:59:00,72.1,55.0,30.21,SE,135,1.6,5.4,55,0.00,,,0.00,meteobridge,2013-06-20 21:59:00,
2013-06-20 18:05:00,71.4,55.4,30.21,SE,135,2.2,2.2,57,0.00,,,0.00,meteobridge,2013-06-20 22:05:00,
2013-06-20 18:10:00,71.1,55.9,30.21,South,180,3.1,4.5,59,0.00,,,0.00,meteobridge,2013-06-20 22:10:00,
2013-06-20 18:15:00,70.7,56.1,30.22,SE,135,4.5,6.0,60,0.00,,,0.00,meteobridge,2013-06-20 22:15:00,
2013-06-20 18:20:00,70.7,56.7,30.22,SE,135,1.6,2.2,61,0.00,,,0.00,meteobridge,2013-06-20 22:20:00,
2013-06-20 18:25:00,70.5,56.8,30.22,SE,135,2.2,3.1,62,0.00,,,0.00,meteobridge,2013-06-20 22:25:00,
2013-06-20 18:31:00,70.3,56.7,30.22,South,180,3.1,3.8,62,0.00,,,0.00,meteobridge,2013-06-20 22:31:00,
2013-06-20 18:36:00,70.3,56.7,30.22,South,180,3.8,3.8,62,0.00,,,0.00,meteobridge,2013-06-20 22:36:00,
2013-06-20 18:41:00,70.0,56.3,30.22,East,90,1.6,2.2,62,0.00,,,0.00,meteobridge,2013-06-20 22:41:00,
2013-06-20 18:46:00,69.6,56.5,30.23,SE,135,2.2,2.2,63,0.00,,,0.00,meteobridge,2013-06-20 22:46:00,
2013-06-20 18:51:00,69.1,56.5,30.23,South,180,3.1,3.1,64,0.00,,,0.00,meteobridge,2013-06-20 22:51:00,
2013-06-20 18:56:00,68.9,56.3,30.22,East,90,3.1,3.1,64,0.00,,,0.00,meteobridge,2013-06-20 22:56:00,
2013-06-20 19:02:00,68.5,55.9,30.22,South,180,2.2,2.2,64,0.00,,,0.00,meteobridge,2013-06-20 23:02:00,
2013-06-20 19:07:00,68.4,56.1,30.22,South,180,2.2,2.2,65,0.00,,,0.00,meteobridge,2013-06-20 23:07:00,
2013-06-20 19:12:00,68.0,55.8,30.22,SW,225,3.8,3.8,65,0.00,,,0.00,meteobridge,2013-06-20 23:12:00,
2013-06-20 19:17:00,67.8,56.1,30.23,SE,135,1.6,2.2,66,0.00,,,0.00,meteobridge,2013-06-20 23:17:00,
2013-06-20 19:22:00,67.5,55.8,30.23,SE,135,0.7,2.2,66,0.00,,,0.00,meteobridge,2013-06-20 23:22:00,
2013-06-20 19:27:00,67.3,55.9,30.23,NE,45,1.6,1.6,67,0.00,,,0.00,meteobridge,2013-06-20 23:27:00,
2013-06-20 19:33:00,66.9,55.6,30.23,South,180,2.2,2.2,67,0.00,,,0.00,meteobridge,2013-06-20 23:33:00,
2013-06-20 19:38:00,66.6,55.2,30.23,SE,135,1.6,2.2,67,0.00,,,0.00,meteobridge,2013-06-20 23:38:00,
2013-06-20 19:43:00,66.2,55.4,30.23,SE,135,2.2,2.2,68,0.00,,,0.00,meteobridge,2013-06-20 23:43:00,
2013-06-20 19:48:00,66.0,55.6,30.23,South,180,0.7,1.6,69,0.00,,,0.00,meteobridge,2013-06-20 23:48:00,
2013-06-20 19:53:00,65.7,55.6,30.23,NW,315,3.1,3.1,70,0.00,,,0.00,meteobridge,2013-06-20 23:53:00,
2013-06-20 19:58:00,65.3,55.6,30.24,SW,225,1.6,3.1,71,0.00,,,0.00,meteobridge,2013-06-20 23:58:00,
2013-06-20 20:04:00,64.9,55.4,30.24,SE,135,3.8,3.8,71,0.00,,,0.00,meteobridge,2013-06-21 00:04:00,
2013-06-20 20:09:00,64.8,55.9,30.24,SE,135,3.8,7.6,73,0.00,,,0.00,meteobridge,2013-06-21 00:09:00,
2013-06-20 20:14:00,64.6,56.1,30.24,SE,135,3.1,3.1,74,0.00,,,0.00,meteobridge,2013-06-21 00:14:00,
2013-06-20 20:19:00,64.2,55.8,30.24,ESE,113,3.1,3.1,74,0.00,,,0.00,meteobridge,2013-06-21 00:19:00,
2013-06-20 20:24:00,64.0,55.6,30.24,NW,315,3.1,3.1,74,0.00,,,0.00,meteobridge,2013-06-21 00:24:00,
2013-06-20 20:29:00,63.9,55.8,30.24,South,180,2.2,2.2,75,0.00,,,0.00,meteobridge,2013-06-21 00:29:00,
2013-06-20 20:35:00,63.7,55.6,30.24,South,180,0.7,2.2,75,0.00,,,0.00,meteobridge,2013-06-21 00:35:00,
2013-06-20 20:40:00,63.5,55.4,30.24,SSE,158,2.2,2.2,75,0.00,,,0.00,meteobridge,2013-06-21 00:40:00,
2013-06-20 20:45:00,63.3,55.6,30.24,South,180,0.7,1.6,76,0.00,,,0.00,meteobridge,2013-06-21 00:45:00,
2013-06-20 20:50:00,63.1,55.4,30.24,North,0,0.7,3.1,76,0.00,,,0.00,meteobridge,2013-06-21 00:50:00,
2013-06-20 20:55:00,63.0,55.2,30.24,SE,135,1.6,2.2,76,0.00,,,0.00,meteobridge,2013-06-21 00:55:00,
2013-06-20 21:00:00,63.0,55.2,30.24,South,180,1.6,1.6,76,0.00,,,0.00,meteobridge,2013-06-21 01:00:00,
2013-06-20 21:06:00,62.6,54.9,30.24,East,90,2.2,3.1,76,0.00,,,0.00,meteobridge,2013-06-21 01:06:00,
2013-06-20 21:11:00,62.6,54.9,30.24,SW,225,0.7,2.2,76,0.00,,,0.00,meteobridge,2013-06-21 01:11:00,
2013-06-20 21:16:00,62.6,54.9,30.24,West,270,1.6,1.6,76,0.00,,,0.00,meteobridge,2013-06-21 01:16:00,
2013-06-20 21:21:00,62.6,54.9,30.24,SE,135,2.2,3.1,76,0.00,,,0.00,meteobridge,2013-06-21 01:21:00,
2013-06-20 21:26:00,62.4,55.4,30.24,South,180,1.6,2.2,78,0.00,,,0.00,meteobridge,2013-06-21 01:26:00,
2013-06-20 21:31:00,62.4,55.4,30.24,SE,135,2.2,2.2,78,0.00,,,0.00,meteobridge,2013-06-21 01:31:00,
2013-06-20 21:37:00,62.2,55.6,30.25,South,180,2.2,2.2,79,0.00,,,0.00,meteobridge,2013-06-21 01:37:00,
2013-06-20 21:42:00,62.1,55.8,30.25,North,0,0.7,3.1,80,0.00,,,0.00,meteobridge,2013-06-21 01:42:00,
2013-06-20 21:47:00,62.1,55.8,30.25,East,90,1.6,1.6,80,0.00,,,0.00,meteobridge,2013-06-21 01:47:00,
2013-06-20 21:52:00,61.9,55.6,30.25,South,180,1.6,2.2,80,0.00,,,0.00,meteobridge,2013-06-21 01:52:00,
2013-06-20 21:57:00,61.9,55.6,30.25,South,180,1.6,1.6,80,0.00,,,0.00,meteobridge,2013-06-21 01:57:00,
2013-06-20 22:02:00,61.9,55.6,30.25,NE,45,0.7,2.2,80,0.00,,,0.00,meteobridge,2013-06-21 02:02:00,
2013-06-20 22:08:00,61.7,55.4,30.25,SE,135,0.7,1.6,80,0.00,,,0.00,meteobridge,2013-06-21 02:08:00,
2013-06-20 22:13:00,61.5,55.2,30.25,South,180,1.6,2.2,80,0.00,,,0.00,meteobridge,2013-06-21 02:13:00,
2013-06-20 22:18:00,61.5,55.6,30.25,NE,45,0.7,2.2,81,0.00,,,0.00,meteobridge,2013-06-21 02:18:00,
2013-06-20 22:23:00,61.5,55.6,30.25,South,180,1.6,2.2,81,0.00,,,0.00,meteobridge,2013-06-21 02:23:00,
2013-06-20 22:28:00,61.5,55.6,30.25,SW,225,3.1,3.1,81,0.00,,,0.00,meteobridge,2013-06-21 02:28:00,
2013-06-20 22:33:00,61.7,55.8,30.25,North,0,0.7,2.2,81,0.00,,,0.00,meteobridge,2013-06-21 02:33:00,
2013-06-20 22:39:00,61.7,55.4,30.25,South,180,1.6,3.1,80,0.00,,,0.00,meteobridge,2013-06-21 02:39:00,
2013-06-20 22:44:00,61.9,55.2,30.24,SW,225,2.2,2.2,79,0.00,,,0.00,meteobridge,2013-06-21 02:44:00,
2013-06-20 22:49:00,61.9,54.9,30.25,SE,135,2.2,2.2,78,0.00,,,0.00,meteobridge,2013-06-21 02:49:00,
2013-06-20 22:54:00,62.1,54.7,30.24,South,180,1.6,2.2,77,0.00,,,0.00,meteobridge,2013-06-21 02:54:00,
2013-06-20 22:59:00,62.1,54.7,30.24,East,90,2.2,2.2,77,0.00,,,0.00,meteobridge,2013-06-21 02:59:00,
2013-06-20 23:04:00,61.9,54.7,30.24,SE,135,3.1,3.1,77,0.00,,,0.00,meteobridge,2013-06-21 03:04:00,
2013-06-20 23:10:00,61.9,54.7,30.24,West,270,1.6,2.2,77,0.00,,,0.00,meteobridge,2013-06-21 03:10:00,
2013-06-20 23:15:00,61.9,54.7,30.24,SW,225,1.6,2.2,77,0.00,,,0.00,meteobridge,2013-06-21 03:15:00,
2013-06-20 23:20:00,61.9,54.7,30.24,South,180,1.6,1.6,77,0.00,,,0.00,meteobridge,2013-06-21 03:20:00,
2013-06-20 23:25:00,61.7,54.5,30.24,South,180,1.6,1.6,77,0.00,,,0.00,meteobridge,2013-06-21 03:25:00,
2013-06-20 23:30:00,61.5,54.3,30.24,SE,135,0.7,0.7,77,0.00,,,0.00,meteobridge,2013-06-21 03:30:00,
2013-06-20 23:35:00,61.2,54.3,30.24,North,0,0.7,0.7,78,0.00,,,0.00,meteobridge,2013-06-21 03:35:00,
2013-06-20 23:41:00,61.0,54.1,30.24,South,180,1.6,1.6,78,0.00,,,0.00,meteobridge,2013-06-21 03:41:00,
2013-06-20 23:46:00,61.0,54.1,30.24,SE,135,0.7,0.7,78,0.00,,,0.00,meteobridge,2013-06-21 03:46:00,
2013-06-20 23:51:00,61.0,54.1,30.24,SE,135,0.7,0.7,78,0.00,,,0.00,meteobridge,2013-06-21 03:51:00,
2013-06-20 23:56:00,61.0,54.1,30.24,SE,135,0.7,1.6,78,0.00,,,0.00,meteobridge,2013-06-21 03:56:00,